sensor_id;sensor_type;location;lat;lon;timestamp;P1;durP1;ratioP1;P2;durP2;ratioP2
1358;SDS011;673;48.098;14.422;2022-10-03T00:01:52;2.17;;;1.30;;
1358;SDS011;673;48.098;14.422;2022-10-03T00:04:38;1.67;;;1.57;;
1358;SDS011;673;48.098;14.422;2022-10-03T00:07:15;1.63;;;1.53;;
1358;SDS011;673;48.098;14.422;2022-10-03T00:09:57;1.60;;;1.50;;
1358;SDS011;673;48.098;14.422;2022-10-03T00:12:44;2.50;;;2.07;;
1358;SDS011;673;48.098;14.422;2022-10-03T00:15:26;1.70;;;1.60;;
1358;SDS011;673;48.098;14.422;2022-10-03T00:17:59;2.10;;;2.00;;
1358;SDS011;673;48.098;14.422;2022-10-03T00:20:39;1.53;;;1.43;;
1358;SDS011;673;48.098;14.422;2022-10-03T00:23:20;1.47;;;1.10;;
1358;SDS011;673;48.098;14.422;2022-10-03T00:25:54;4.13;;;3.00;;
1358;SDS011;673;48.098;14.422;2022-10-03T00:28:54;1.70;;;1.60;;
1358;SDS011;673;48.098;14.422;2022-10-03T00:31:35;4.83;;;2.27;;
1358;SDS011;673;48.098;14.422;2022-10-03T00:34:07;2.47;;;2.27;;
1358;SDS011;673;48.098;14.422;2022-10-03T00:36:50;1.80;;;1.70;;
1358;SDS011;673;48.098;14.422;2022-10-03T00:39:35;2.90;;;1.67;;
1358;SDS011;673;48.098;14.422;2022-10-03T00:42:32;4.30;;;2.23;;
1358;SDS011;673;48.098;14.422;2022-10-03T00:45:34;3.07;;;2.50;;
1358;SDS011;673;48.098;14.422;2022-10-03T00:48:24;3.37;;;2.23;;
1358;SDS011;673;48.098;14.422;2022-10-03T00:51:19;2.70;;;2.50;;
1358;SDS011;673;48.098;14.422;2022-10-03T00:53:59;2.90;;;2.10;;
1358;SDS011;673;48.098;14.422;2022-10-03T00:56:46;3.93;;;2.73;;
1358;SDS011;673;48.098;14.422;2022-10-03T00:59:26;2.00;;;1.90;;
1358;SDS011;673;48.098;14.422;2022-10-03T01:02:22;2.40;;;2.20;;
1358;SDS011;673;48.098;14.422;2022-10-03T01:05:02;2.37;;;2.00;;
1358;SDS011;673;48.098;14.422;2022-10-03T01:07:54;2.03;;;1.93;;
1358;SDS011;673;48.098;14.422;2022-10-03T01:10:31;2.70;;;2.50;;
1358;SDS011;673;48.098;14.422;2022-10-03T01:13:11;3.27;;;2.93;;
1358;SDS011;673;48.098;14.422;2022-10-03T01:15:51;2.70;;;2.50;;
1358;SDS011;673;48.098;14.422;2022-10-03T01:18:30;4.83;;;3.30;;
1358;SDS011;673;48.098;14.422;2022-10-03T01:21:07;3.67;;;3.33;;
1358;SDS011;673;48.098;14.422;2022-10-03T01:26:55;3.77;;;3.30;;
1358;SDS011;673;48.098;14.422;2022-10-03T01:29:29;3.43;;;3.10;;
1358;SDS011;673;48.098;14.422;2022-10-03T01:32:37;4.23;;;3.87;;
1358;SDS011;673;48.098;14.422;2022-10-03T01:35:12;3.07;;;2.77;;
1358;SDS011;673;48.098;14.422;2022-10-03T01:37:47;3.50;;;3.20;;
1358;SDS011;673;48.098;14.422;2022-10-03T01:40:24;3.57;;;3.10;;
1358;SDS011;673;48.098;14.422;2022-10-03T01:43:03;2.60;;;2.40;;
1358;SDS011;673;48.098;14.422;2022-10-03T01:45:43;3.17;;;2.80;;
1358;SDS011;673;48.098;14.422;2022-10-03T01:48:21;3.23;;;2.90;;
1358;SDS011;673;48.098;14.422;2022-10-03T01:50:57;3.60;;;2.70;;
1358;SDS011;673;48.098;14.422;2022-10-03T01:53:30;2.97;;;2.50;;
1358;SDS011;673;48.098;14.422;2022-10-03T01:56:07;4.50;;;2.90;;
1358;SDS011;673;48.098;14.422;2022-10-03T01:58:44;2.90;;;2.70;;
1358;SDS011;673;48.098;14.422;2022-10-03T02:01:23;3.50;;;3.20;;
1358;SDS011;673;48.098;14.422;2022-10-03T02:03:59;4.83;;;3.20;;
1358;SDS011;673;48.098;14.422;2022-10-03T02:06:34;4.57;;;2.77;;
1358;SDS011;673;48.098;14.422;2022-10-03T02:09:11;4.03;;;3.73;;
1358;SDS011;673;48.098;14.422;2022-10-03T02:11:59;3.43;;;3.13;;
1358;SDS011;673;48.098;14.422;2022-10-03T02:14:33;3.70;;;3.50;;
1358;SDS011;673;48.098;14.422;2022-10-03T02:17:19;3.90;;;3.67;;
1358;SDS011;673;48.098;14.422;2022-10-03T02:19:56;3.23;;;3.00;;
1358;SDS011;673;48.098;14.422;2022-10-03T02:22:34;3.73;;;3.43;;
1358;SDS011;673;48.098;14.422;2022-10-03T02:25:19;4.60;;;4.07;;
1358;SDS011;673;48.098;14.422;2022-10-03T02:31:05;4.03;;;3.60;;
1358;SDS011;673;48.098;14.422;2022-10-03T02:40:04;6.73;;;5.97;;
1358;SDS011;673;48.098;14.422;2022-10-03T02:43:07;3.80;;;3.50;;
1358;SDS011;673;48.098;14.422;2022-10-03T02:46:16;7.97;;;4.30;;
1358;SDS011;673;48.098;14.422;2022-10-03T02:49:03;6.00;;;3.33;;
1358;SDS011;673;48.098;14.422;2022-10-03T02:54:58;5.47;;;4.30;;
1358;SDS011;673;48.098;14.422;2022-10-03T03:01:02;4.40;;;4.00;;
1358;SDS011;673;48.098;14.422;2022-10-03T03:03:59;4.97;;;4.03;;
1358;SDS011;673;48.098;14.422;2022-10-03T03:06:51;5.73;;;3.60;;
1358;SDS011;673;48.098;14.422;2022-10-03T03:12:42;4.37;;;3.97;;
1358;SDS011;673;48.098;14.422;2022-10-03T03:18:33;6.47;;;4.10;;
1358;SDS011;673;48.098;14.422;2022-10-03T03:21:09;4.73;;;4.17;;
1358;SDS011;673;48.098;14.422;2022-10-03T03:23:53;6.97;;;3.77;;
1358;SDS011;673;48.098;14.422;2022-10-03T03:29:41;4.50;;;4.13;;
1358;SDS011;673;48.098;14.422;2022-10-03T03:32:18;6.93;;;3.83;;
1358;SDS011;673;48.098;14.422;2022-10-03T03:34:57;3.97;;;3.67;;
1358;SDS011;673;48.098;14.422;2022-10-03T03:37:33;3.57;;;3.27;;
1358;SDS011;673;48.098;14.422;2022-10-03T03:40:13;4.70;;;4.30;;
1358;SDS011;673;48.098;14.422;2022-10-03T03:43:07;4.87;;;4.47;;
1358;SDS011;673;48.098;14.422;2022-10-03T03:45:57;6.97;;;3.70;;
1358;SDS011;673;48.098;14.422;2022-10-03T03:48:43;7.03;;;4.57;;
1358;SDS011;673;48.098;14.422;2022-10-03T03:51:28;5.43;;;4.77;;
1358;SDS011;673;48.098;14.422;2022-10-03T03:54:11;4.90;;;4.00;;
1358;SDS011;673;48.098;14.422;2022-10-03T03:57:12;4.93;;;4.53;;
1358;SDS011;673;48.098;14.422;2022-10-03T04:00:00;5.70;;;4.70;;
1358;SDS011;673;48.098;14.422;2022-10-03T04:02:36;6.73;;;5.80;;
1358;SDS011;673;48.098;14.422;2022-10-03T04:05:31;7.00;;;4.57;;
1358;SDS011;673;48.098;14.422;2022-10-03T04:08:25;5.37;;;4.87;;
1358;SDS011;673;48.098;14.422;2022-10-03T04:11:08;6.80;;;5.70;;
1358;SDS011;673;48.098;14.422;2022-10-03T04:13:56;6.70;;;4.77;;
1358;SDS011;673;48.098;14.422;2022-10-03T04:16:48;6.00;;;4.40;;
1358;SDS011;673;48.098;14.422;2022-10-03T04:20:05;5.57;;;4.40;;
1358;SDS011;673;48.098;14.422;2022-10-03T04:22:44;4.63;;;4.03;;
1358;SDS011;673;48.098;14.422;2022-10-03T04:25:24;5.27;;;4.40;;
1358;SDS011;673;48.098;14.422;2022-10-03T04:31:22;4.97;;;4.40;;
1358;SDS011;673;48.098;14.422;2022-10-03T04:34:03;6.80;;;4.53;;
1358;SDS011;673;48.098;14.422;2022-10-03T04:39:34;5.67;;;3.90;;
1358;SDS011;673;48.098;14.422;2022-10-03T04:42:09;11.70;;;4.90;;
1358;SDS011;673;48.098;14.422;2022-10-03T04:44:46;8.73;;;4.57;;
1358;SDS011;673;48.098;14.422;2022-10-03T04:47:27;6.33;;;4.87;;
1358;SDS011;673;48.098;14.422;2022-10-03T04:50:02;6.63;;;5.03;;
1358;SDS011;673;48.098;14.422;2022-10-03T04:52:46;7.40;;;4.40;;
1358;SDS011;673;48.098;14.422;2022-10-03T04:55:20;6.03;;;4.27;;
1358;SDS011;673;48.098;14.422;2022-10-03T04:57:54;5.07;;;4.57;;
1358;SDS011;673;48.098;14.422;2022-10-03T05:00:26;4.80;;;4.17;;
1358;SDS011;673;48.098;14.422;2022-10-03T05:03:00;8.03;;;4.60;;
1358;SDS011;673;48.098;14.422;2022-10-03T05:05:44;8.80;;;4.83;;
1358;SDS011;673;48.098;14.422;2022-10-03T05:08:18;6.37;;;4.70;;
1358;SDS011;673;48.098;14.422;2022-10-03T05:11:00;7.97;;;3.87;;
1358;SDS011;673;48.098;14.422;2022-10-03T05:13:50;4.13;;;3.73;;
1358;SDS011;673;48.098;14.422;2022-10-03T05:16:26;6.77;;;4.63;;
1358;SDS011;673;48.098;14.422;2022-10-03T05:19:04;8.47;;;3.80;;
1358;SDS011;673;48.098;14.422;2022-10-03T05:21:46;4.77;;;4.37;;
1358;SDS011;673;48.098;14.422;2022-10-03T05:24:22;8.83;;;4.70;;
1358;SDS011;673;48.098;14.422;2022-10-03T05:27:10;5.83;;;4.57;;
1358;SDS011;673;48.098;14.422;2022-10-03T05:29:46;6.50;;;4.60;;
1358;SDS011;673;48.098;14.422;2022-10-03T05:32:24;4.80;;;4.30;;
1358;SDS011;673;48.098;14.422;2022-10-03T05:35:03;7.93;;;4.47;;
1358;SDS011;673;48.098;14.422;2022-10-03T05:37:54;4.63;;;4.10;;
1358;SDS011;673;48.098;14.422;2022-10-03T05:40:38;6.50;;;4.67;;
1358;SDS011;673;48.098;14.422;2022-10-03T05:43:22;7.83;;;4.13;;
1358;SDS011;673;48.098;14.422;2022-10-03T05:45:54;6.13;;;4.37;;
1358;SDS011;673;48.098;14.422;2022-10-03T05:48:29;4.30;;;3.93;;
1358;SDS011;673;48.098;14.422;2022-10-03T05:56:57;7.50;;;5.17;;
1358;SDS011;673;48.098;14.422;2022-10-03T06:00:09;11.57;;;6.07;;
1358;SDS011;673;48.098;14.422;2022-10-03T06:06:00;4.30;;;3.87;;
1358;SDS011;673;48.098;14.422;2022-10-03T06:08:47;6.60;;;5.80;;
1358;SDS011;673;48.098;14.422;2022-10-03T06:11:24;5.80;;;4.73;;
1358;SDS011;673;48.098;14.422;2022-10-03T06:14:35;6.70;;;3.97;;
1358;SDS011;673;48.098;14.422;2022-10-03T06:17:22;5.30;;;4.50;;
1358;SDS011;673;48.098;14.422;2022-10-03T06:20:15;5.07;;;4.67;;
1358;SDS011;673;48.098;14.422;2022-10-03T06:35:12;5.07;;;4.67;;
1358;SDS011;673;48.098;14.422;2022-10-03T06:44:27;4.60;;;3.50;;
1358;SDS011;673;48.098;14.422;2022-10-03T06:47:15;4.23;;;3.80;;
1358;SDS011;673;48.098;14.422;2022-10-03T06:53:12;3.90;;;3.43;;
1358;SDS011;673;48.098;14.422;2022-10-03T06:55:59;6.93;;;4.20;;
1358;SDS011;673;48.098;14.422;2022-10-03T06:59:03;7.50;;;3.90;;
1358;SDS011;673;48.098;14.422;2022-10-03T07:08:21;4.57;;;4.17;;
1358;SDS011;673;48.098;14.422;2022-10-03T07:14:34;8.50;;;5.00;;
1358;SDS011;673;48.098;14.422;2022-10-03T07:17:31;9.60;;;5.07;;
1358;SDS011;673;48.098;14.422;2022-10-03T07:20:10;4.60;;;4.00;;
1358;SDS011;673;48.098;14.422;2022-10-03T07:23:00;5.90;;;4.53;;
1358;SDS011;673;48.098;14.422;2022-10-03T07:26:18;7.90;;;4.10;;
1358;SDS011;673;48.098;14.422;2022-10-03T07:29:17;6.03;;;5.00;;
1358;SDS011;673;48.098;14.422;2022-10-03T07:32:14;10.80;;;5.57;;
1358;SDS011;673;48.098;14.422;2022-10-03T07:35:15;5.30;;;3.67;;
1358;SDS011;673;48.098;14.422;2022-10-03T07:38:36;5.70;;;3.73;;
1358;SDS011;673;48.098;14.422;2022-10-03T07:41:31;22.17;;;4.30;;
1358;SDS011;673;48.098;14.422;2022-10-03T07:47:35;8.47;;;3.80;;
1358;SDS011;673;48.098;14.422;2022-10-03T07:50:56;5.50;;;2.90;;
1358;SDS011;673;48.098;14.422;2022-10-03T07:53:43;6.03;;;3.40;;
1358;SDS011;673;48.098;14.422;2022-10-03T07:56:39;11.10;;;4.20;;
1358;SDS011;673;48.098;14.422;2022-10-03T08:02:37;5.27;;;4.70;;
1358;SDS011;673;48.098;14.422;2022-10-03T08:05:27;4.00;;;3.23;;
1358;SDS011;673;48.098;14.422;2022-10-03T08:08:22;11.03;;;5.03;;
1358;SDS011;673;48.098;14.422;2022-10-03T08:14:25;9.57;;;4.00;;
1358;SDS011;673;48.098;14.422;2022-10-03T08:17:12;6.27;;;4.57;;
1358;SDS011;673;48.098;14.422;2022-10-03T08:22:58;6.17;;;3.77;;
1358;SDS011;673;48.098;14.422;2022-10-03T08:25:39;6.80;;;4.17;;
1358;SDS011;673;48.098;14.422;2022-10-03T08:28:26;3.77;;;3.20;;
1358;SDS011;673;48.098;14.422;2022-10-03T08:31:12;7.30;;;4.70;;
1358;SDS011;673;48.098;14.422;2022-10-03T08:43:52;4.60;;;2.77;;
1358;SDS011;673;48.098;14.422;2022-10-03T08:46:51;3.50;;;2.20;;
1358;SDS011;673;48.098;14.422;2022-10-03T08:49:53;8.40;;;3.20;;
1358;SDS011;673;48.098;14.422;2022-10-03T08:52:49;4.10;;;2.70;;
1358;SDS011;673;48.098;14.422;2022-10-03T08:55:46;5.07;;;2.37;;
1358;SDS011;673;48.098;14.422;2022-10-03T08:58:26;6.17;;;2.27;;
1358;SDS011;673;48.098;14.422;2022-10-03T09:01:21;1.90;;;1.70;;
1358;SDS011;673;48.098;14.422;2022-10-03T09:10:44;5.00;;;2.87;;
1358;SDS011;673;48.098;14.422;2022-10-03T09:13:34;3.90;;;3.23;;
1358;SDS011;673;48.098;14.422;2022-10-03T09:16:50;3.83;;;2.90;;
1358;SDS011;673;48.098;14.422;2022-10-03T09:19:34;3.00;;;2.80;;
1358;SDS011;673;48.098;14.422;2022-10-03T09:25:26;3.63;;;2.57;;
1358;SDS011;673;48.098;14.422;2022-10-03T09:31:15;6.77;;;3.80;;
1358;SDS011;673;48.098;14.422;2022-10-03T09:34:00;7.33;;;3.47;;
1358;SDS011;673;48.098;14.422;2022-10-03T09:49:46;3.20;;;2.83;;
1358;SDS011;673;48.098;14.422;2022-10-03T09:52:46;5.63;;;3.00;;
1358;SDS011;673;48.098;14.422;2022-10-03T09:55:37;4.53;;;1.93;;
1358;SDS011;673;48.098;14.422;2022-10-03T09:58:27;7.53;;;2.60;;
1358;SDS011;673;48.098;14.422;2022-10-03T10:01:12;2.60;;;1.47;;
1358;SDS011;673;48.098;14.422;2022-10-03T10:07:07;4.40;;;1.97;;
1358;SDS011;673;48.098;14.422;2022-10-03T10:10:02;1.77;;;1.67;;
1358;SDS011;673;48.098;14.422;2022-10-03T10:12:54;3.23;;;1.30;;
1358;SDS011;673;48.098;14.422;2022-10-03T10:19:12;1.50;;;1.17;;
1358;SDS011;673;48.098;14.422;2022-10-03T10:25:04;1.70;;;1.47;;
1358;SDS011;673;48.098;14.422;2022-10-03T10:34:32;2.20;;;0.93;;
1358;SDS011;673;48.098;14.422;2022-10-03T10:37:36;1.37;;;1.07;;
1358;SDS011;673;48.098;14.422;2022-10-03T10:46:44;3.90;;;0.90;;
1358;SDS011;673;48.098;14.422;2022-10-03T10:49:53;3.10;;;0.80;;
1358;SDS011;673;48.098;14.422;2022-10-03T10:56:25;2.53;;;1.30;;
1358;SDS011;673;48.098;14.422;2022-10-03T11:08:48;0.70;;;0.60;;
1358;SDS011;673;48.098;14.422;2022-10-03T11:21:32;2.50;;;0.93;;
1358;SDS011;673;48.098;14.422;2022-10-03T11:30:46;5.50;;;0.90;;
1358;SDS011;673;48.098;14.422;2022-10-03T11:36:55;3.00;;;1.00;;
1358;SDS011;673;48.098;14.422;2022-10-03T11:39:34;5.17;;;1.17;;
1358;SDS011;673;48.098;14.422;2022-10-03T11:42:11;4.70;;;1.20;;
1358;SDS011;673;48.098;14.422;2022-10-03T11:44:48;1.73;;;0.90;;
1358;SDS011;673;48.098;14.422;2022-10-03T11:47:31;1.37;;;0.73;;
1358;SDS011;673;48.098;14.422;2022-10-03T11:50:28;3.47;;;1.13;;
1358;SDS011;673;48.098;14.422;2022-10-03T11:53:13;6.17;;;1.13;;
1358;SDS011;673;48.098;14.422;2022-10-03T11:56:04;1.90;;;0.70;;
1358;SDS011;673;48.098;14.422;2022-10-03T11:58:49;4.43;;;1.00;;
1358;SDS011;673;48.098;14.422;2022-10-03T12:01:22;5.10;;;2.00;;
1358;SDS011;673;48.098;14.422;2022-10-03T12:03:56;4.73;;;3.00;;
1358;SDS011;673;48.098;14.422;2022-10-03T12:06:46;1.47;;;1.37;;
1358;SDS011;673;48.098;14.422;2022-10-03T12:09:42;3.70;;;1.13;;
1358;SDS011;673;48.098;14.422;2022-10-03T12:12:22;7.07;;;3.43;;
1358;SDS011;673;48.098;14.422;2022-10-03T12:14:56;9.23;;;2.50;;
1358;SDS011;673;48.098;14.422;2022-10-03T12:17:30;2.30;;;1.63;;
1358;SDS011;673;48.098;14.422;2022-10-03T12:20:01;6.47;;;2.50;;
1358;SDS011;673;48.098;14.422;2022-10-03T12:22:38;4.87;;;1.83;;
1358;SDS011;673;48.098;14.422;2022-10-03T12:25:18;1.40;;;0.90;;
1358;SDS011;673;48.098;14.422;2022-10-03T12:27:49;2.20;;;0.80;;
1358;SDS011;673;48.098;14.422;2022-10-03T12:30:24;3.33;;;0.90;;
1358;SDS011;673;48.098;14.422;2022-10-03T12:33:06;6.37;;;0.97;;
1358;SDS011;673;48.098;14.422;2022-10-03T12:35:45;1.20;;;0.93;;
1358;SDS011;673;48.098;14.422;2022-10-03T12:38:20;1.20;;;0.80;;
1358;SDS011;673;48.098;14.422;2022-10-03T12:41:02;6.90;;;1.00;;
1358;SDS011;673;48.098;14.422;2022-10-03T12:43:46;5.30;;;0.83;;
1358;SDS011;673;48.098;14.422;2022-10-03T12:46:29;2.47;;;0.90;;
1358;SDS011;673;48.098;14.422;2022-10-03T12:49:04;3.60;;;0.80;;
1358;SDS011;673;48.098;14.422;2022-10-03T12:51:43;2.53;;;0.83;;
1358;SDS011;673;48.098;14.422;2022-10-03T12:54:21;3.00;;;0.77;;
1358;SDS011;673;48.098;14.422;2022-10-03T12:57:05;1.23;;;0.70;;
1358;SDS011;673;48.098;14.422;2022-10-03T12:59:49;3.37;;;0.87;;
1358;SDS011;673;48.098;14.422;2022-10-03T13:02:23;1.43;;;0.70;;
1358;SDS011;673;48.098;14.422;2022-10-03T13:05:14;3.20;;;1.57;;
1358;SDS011;673;48.098;14.422;2022-10-03T13:07:55;2.10;;;0.60;;
1358;SDS011;673;48.098;14.422;2022-10-03T13:10:29;5.10;;;0.67;;
1358;SDS011;673;48.098;14.422;2022-10-03T13:13:19;2.40;;;0.80;;
1358;SDS011;673;48.098;14.422;2022-10-03T13:16:06;4.80;;;0.80;;
1358;SDS011;673;48.098;14.422;2022-10-03T13:18:49;0.97;;;0.97;;
1358;SDS011;673;48.098;14.422;2022-10-03T13:21:22;3.80;;;0.80;;
1358;SDS011;673;48.098;14.422;2022-10-03T13:24:00;1.87;;;1.17;;
1358;SDS011;673;48.098;14.422;2022-10-03T13:26:38;1.10;;;0.70;;
1358;SDS011;673;48.098;14.422;2022-10-03T13:29:27;3.33;;;1.13;;
1358;SDS011;673;48.098;14.422;2022-10-03T13:32:04;2.43;;;1.03;;
1358;SDS011;673;48.098;14.422;2022-10-03T13:40:56;2.07;;;0.63;;
1358;SDS011;673;48.098;14.422;2022-10-03T13:43:31;0.67;;;0.63;;
1358;SDS011;673;48.098;14.422;2022-10-03T13:46:04;1.87;;;0.80;;
1358;SDS011;673;48.098;14.422;2022-10-03T13:48:37;4.10;;;0.80;;
1358;SDS011;673;48.098;14.422;2022-10-03T13:51:09;2.10;;;0.87;;
1358;SDS011;673;48.098;14.422;2022-10-03T13:53:53;3.37;;;1.00;;
1358;SDS011;673;48.098;14.422;2022-10-03T13:56:30;1.53;;;1.00;;
1358;SDS011;673;48.098;14.422;2022-10-03T14:02:14;2.80;;;1.20;;
1358;SDS011;673;48.098;14.422;2022-10-03T14:05:01;5.77;;;1.30;;
1358;SDS011;673;48.098;14.422;2022-10-03T14:07:47;4.07;;;1.73;;
1358;SDS011;673;48.098;14.422;2022-10-03T14:10:23;6.73;;;2.03;;
1358;SDS011;673;48.098;14.422;2022-10-03T14:13:15;3.90;;;2.00;;
1358;SDS011;673;48.098;14.422;2022-10-03T14:15:49;1.50;;;1.20;;
1358;SDS011;673;48.098;14.422;2022-10-03T14:18:33;4.83;;;1.03;;
1358;SDS011;673;48.098;14.422;2022-10-03T14:21:23;1.70;;;0.90;;
1358;SDS011;673;48.098;14.422;2022-10-03T14:24:24;4.73;;;1.63;;
1358;SDS011;673;48.098;14.422;2022-10-03T14:27:18;2.07;;;1.47;;
1358;SDS011;673;48.098;14.422;2022-10-03T14:30:02;4.83;;;2.00;;
1358;SDS011;673;48.098;14.422;2022-10-03T14:32:35;2.90;;;1.00;;
1358;SDS011;673;48.098;14.422;2022-10-03T14:35:14;4.40;;;1.10;;
1358;SDS011;673;48.098;14.422;2022-10-03T14:37:50;3.13;;;1.63;;
1358;SDS011;673;48.098;14.422;2022-10-03T14:40:24;2.27;;;1.00;;
1358;SDS011;673;48.098;14.422;2022-10-03T14:43:09;4.23;;;1.33;;
1358;SDS011;673;48.098;14.422;2022-10-03T14:45:47;2.07;;;1.03;;
1358;SDS011;673;48.098;14.422;2022-10-03T14:48:18;4.83;;;1.53;;
1358;SDS011;673;48.098;14.422;2022-10-03T14:50:50;2.23;;;1.27;;
1358;SDS011;673;48.098;14.422;2022-10-03T14:53:22;9.83;;;2.50;;
1358;SDS011;673;48.098;14.422;2022-10-03T14:55:55;1.33;;;1.07;;
1358;SDS011;673;48.098;14.422;2022-10-03T14:58:27;3.37;;;1.67;;
1358;SDS011;673;48.098;14.422;2022-10-03T15:01:03;5.10;;;1.40;;
1358;SDS011;673;48.098;14.422;2022-10-03T15:03:37;3.20;;;1.10;;
1358;SDS011;673;48.098;14.422;2022-10-03T15:06:29;2.93;;;1.00;;
1358;SDS011;673;48.098;14.422;2022-10-03T15:08:59;2.20;;;0.83;;
1358;SDS011;673;48.098;14.422;2022-10-03T15:11:30;3.13;;;1.40;;
1358;SDS011;673;48.098;14.422;2022-10-03T15:14:00;5.17;;;0.73;;
1358;SDS011;673;48.098;14.422;2022-10-03T15:16:31;0.93;;;0.70;;
1358;SDS011;673;48.098;14.422;2022-10-03T15:19:02;3.00;;;0.83;;
1358;SDS011;673;48.098;14.422;2022-10-03T15:21:34;2.97;;;0.90;;
1358;SDS011;673;48.098;14.422;2022-10-03T15:24:04;6.03;;;1.33;;
1358;SDS011;673;48.098;14.422;2022-10-03T15:26:36;1.20;;;0.63;;
1358;SDS011;673;48.098;14.422;2022-10-03T15:29:15;7.20;;;0.90;;
1358;SDS011;673;48.098;14.422;2022-10-03T15:31:44;6.87;;;1.10;;
1358;SDS011;673;48.098;14.422;2022-10-03T15:34:14;2.97;;;0.80;;
1358;SDS011;673;48.098;14.422;2022-10-03T15:36:47;1.47;;;0.80;;
1358;SDS011;673;48.098;14.422;2022-10-03T15:39:17;3.53;;;0.80;;
1358;SDS011;673;48.098;14.422;2022-10-03T15:41:50;6.23;;;0.77;;
1358;SDS011;673;48.098;14.422;2022-10-03T15:44:21;0.60;;;0.60;;
1358;SDS011;673;48.098;14.422;2022-10-03T15:46:57;3.00;;;0.60;;
1358;SDS011;673;48.098;14.422;2022-10-03T15:49:27;2.00;;;0.70;;
1358;SDS011;673;48.098;14.422;2022-10-03T15:51:58;2.20;;;0.70;;
1358;SDS011;673;48.098;14.422;2022-10-03T15:54:33;3.57;;;0.70;;
1358;SDS011;673;48.098;14.422;2022-10-03T15:57:03;1.63;;;0.80;;
1358;SDS011;673;48.098;14.422;2022-10-03T15:59:32;2.20;;;0.83;;
1358;SDS011;673;48.098;14.422;2022-10-03T16:02:02;0.90;;;0.70;;
1358;SDS011;673;48.098;14.422;2022-10-03T16:04:37;8.93;;;2.93;;
1358;SDS011;673;48.098;14.422;2022-10-03T16:07:11;1.23;;;0.70;;
1358;SDS011;673;48.098;14.422;2022-10-03T16:09:49;1.90;;;0.60;;
1358;SDS011;673;48.098;14.422;2022-10-03T16:12:45;3.13;;;0.60;;
1358;SDS011;673;48.098;14.422;2022-10-03T16:15:20;1.20;;;0.60;;
1358;SDS011;673;48.098;14.422;2022-10-03T16:17:53;2.50;;;0.70;;
1358;SDS011;673;48.098;14.422;2022-10-03T16:20:25;2.00;;;0.77;;
1358;SDS011;673;48.098;14.422;2022-10-03T16:22:57;2.60;;;0.60;;
1358;SDS011;673;48.098;14.422;2022-10-03T16:25:30;3.00;;;0.60;;
1358;SDS011;673;48.098;14.422;2022-10-03T16:28:12;1.20;;;0.60;;
1358;SDS011;673;48.098;14.422;2022-10-03T16:30:43;1.10;;;0.80;;
1358;SDS011;673;48.098;14.422;2022-10-03T16:33:15;1.90;;;0.67;;
1358;SDS011;673;48.098;14.422;2022-10-03T16:35:46;4.20;;;0.70;;
1358;SDS011;673;48.098;14.422;2022-10-03T16:38:18;1.00;;;0.90;;
1358;SDS011;673;48.098;14.422;2022-10-03T16:40:49;3.27;;;0.83;;
1358;SDS011;673;48.098;14.422;2022-10-03T16:43:20;1.43;;;0.73;;
1358;SDS011;673;48.098;14.422;2022-10-03T16:45:48;2.50;;;0.63;;
1358;SDS011;673;48.098;14.422;2022-10-03T16:48:18;1.87;;;0.80;;
1358;SDS011;673;48.098;14.422;2022-10-03T16:51:05;1.63;;;0.73;;
1358;SDS011;673;48.098;14.422;2022-10-03T16:53:42;1.30;;;0.70;;
1358;SDS011;673;48.098;14.422;2022-10-03T16:56:12;1.57;;;1.00;;
1358;SDS011;673;48.098;14.422;2022-10-03T16:58:42;0.93;;;0.60;;
1358;SDS011;673;48.098;14.422;2022-10-03T17:01:20;1.33;;;0.93;;
1358;SDS011;673;48.098;14.422;2022-10-03T17:04:07;1.63;;;0.90;;
1358;SDS011;673;48.098;14.422;2022-10-03T17:06:44;3.17;;;0.70;;
1358;SDS011;673;48.098;14.422;2022-10-03T17:12:01;2.50;;;0.80;;
1358;SDS011;673;48.098;14.422;2022-10-03T17:14:32;1.07;;;1.00;;
1358;SDS011;673;48.098;14.422;2022-10-03T17:17:06;1.17;;;0.77;;
1358;SDS011;673;48.098;14.422;2022-10-03T17:19:49;0.90;;;0.80;;
1358;SDS011;673;48.098;14.422;2022-10-03T17:22:23;5.33;;;1.83;;
1358;SDS011;673;48.098;14.422;2022-10-03T17:24:58;3.17;;;1.40;;
1358;SDS011;673;48.098;14.422;2022-10-03T17:27:30;1.87;;;0.70;;
1358;SDS011;673;48.098;14.422;2022-10-03T17:30:03;2.00;;;0.60;;
1358;SDS011;673;48.098;14.422;2022-10-03T17:32:38;2.97;;;2.60;;
1358;SDS011;673;48.098;14.422;2022-10-03T17:35:10;1.33;;;0.80;;
1358;SDS011;673;48.098;14.422;2022-10-03T17:38:04;2.30;;;0.70;;
1358;SDS011;673;48.098;14.422;2022-10-03T17:40:49;4.23;;;0.90;;
1358;SDS011;673;48.098;14.422;2022-10-03T17:43:28;2.83;;;1.37;;
1358;SDS011;673;48.098;14.422;2022-10-03T17:46:02;1.13;;;0.80;;
1358;SDS011;673;48.098;14.422;2022-10-03T17:48:35;1.40;;;0.80;;
1358;SDS011;673;48.098;14.422;2022-10-03T17:51:17;5.00;;;0.77;;
1358;SDS011;673;48.098;14.422;2022-10-03T17:53:55;1.60;;;1.20;;
1358;SDS011;673;48.098;14.422;2022-10-03T17:56:26;3.70;;;0.70;;
1358;SDS011;673;48.098;14.422;2022-10-03T17:58:57;4.53;;;0.70;;
1358;SDS011;673;48.098;14.422;2022-10-03T18:01:29;2.30;;;1.10;;
1358;SDS011;673;48.098;14.422;2022-10-03T18:04:01;2.10;;;0.87;;
1358;SDS011;673;48.098;14.422;2022-10-03T18:06:41;0.90;;;0.70;;
1358;SDS011;673;48.098;14.422;2022-10-03T18:09:20;1.80;;;0.63;;
1358;SDS011;673;48.098;14.422;2022-10-03T18:14:47;5.90;;;1.10;;
1358;SDS011;673;48.098;14.422;2022-10-03T18:17:27;2.50;;;1.03;;
1358;SDS011;673;48.098;14.422;2022-10-03T18:20:18;1.97;;;0.70;;
1358;SDS011;673;48.098;14.422;2022-10-03T18:22:53;2.80;;;0.80;;
1358;SDS011;673;48.098;14.422;2022-10-03T18:25:27;3.73;;;1.30;;
1358;SDS011;673;48.098;14.422;2022-10-03T18:28:18;2.37;;;0.90;;
1358;SDS011;673;48.098;14.422;2022-10-03T18:30:49;1.47;;;0.97;;
1358;SDS011;673;48.098;14.422;2022-10-03T18:33:22;3.03;;;1.10;;
1358;SDS011;673;48.098;14.422;2022-10-03T18:35:54;1.00;;;0.80;;
1358;SDS011;673;48.098;14.422;2022-10-03T18:38:22;2.60;;;1.80;;
1358;SDS011;673;48.098;14.422;2022-10-03T18:40:52;1.00;;;0.77;;
1358;SDS011;673;48.098;14.422;2022-10-03T18:43:27;2.73;;;1.13;;
1358;SDS011;673;48.098;14.422;2022-10-03T18:46:02;3.47;;;2.47;;
1358;SDS011;673;48.098;14.422;2022-10-03T18:48:44;3.80;;;2.40;;
1358;SDS011;673;48.098;14.422;2022-10-03T18:51:20;6.30;;;1.30;;
1358;SDS011;673;48.098;14.422;2022-10-03T18:53:55;1.37;;;1.00;;
1358;SDS011;673;48.098;14.422;2022-10-03T18:56:27;1.80;;;1.40;;
1358;SDS011;673;48.098;14.422;2022-10-03T18:59:00;2.50;;;1.20;;
1358;SDS011;673;48.098;14.422;2022-10-03T19:01:39;2.67;;;1.33;;
1358;SDS011;673;48.098;14.422;2022-10-03T19:04:12;2.83;;;1.20;;
1358;SDS011;673;48.098;14.422;2022-10-03T19:06:43;2.73;;;1.77;;
1358;SDS011;673;48.098;14.422;2022-10-03T19:09:13;2.23;;;1.40;;
1358;SDS011;673;48.098;14.422;2022-10-03T19:11:46;3.90;;;1.40;;
1358;SDS011;673;48.098;14.422;2022-10-03T19:14:22;1.73;;;1.20;;
1358;SDS011;673;48.098;14.422;2022-10-03T19:16:58;3.20;;;1.50;;
1358;SDS011;673;48.098;14.422;2022-10-03T19:19:41;2.97;;;1.73;;
1358;SDS011;673;48.098;14.422;2022-10-03T19:22:20;2.07;;;1.40;;
1358;SDS011;673;48.098;14.422;2022-10-03T19:24:53;9.70;;;2.80;;
1358;SDS011;673;48.098;14.422;2022-10-03T19:27:27;2.97;;;1.47;;
1358;SDS011;673;48.098;14.422;2022-10-03T19:30:07;2.30;;;1.60;;
1358;SDS011;673;48.098;14.422;2022-10-03T19:32:47;4.80;;;2.47;;
1358;SDS011;673;48.098;14.422;2022-10-03T19:35:19;3.70;;;2.37;;
1358;SDS011;673;48.098;14.422;2022-10-03T19:37:49;4.70;;;2.37;;
1358;SDS011;673;48.098;14.422;2022-10-03T19:40:26;2.40;;;1.60;;
1358;SDS011;673;48.098;14.422;2022-10-03T19:46:00;3.10;;;1.83;;
1358;SDS011;673;48.098;14.422;2022-10-03T19:48:38;1.93;;;1.77;;
1358;SDS011;673;48.098;14.422;2022-10-03T19:51:12;3.00;;;1.97;;
1358;SDS011;673;48.098;14.422;2022-10-03T19:53:41;6.43;;;3.00;;
1358;SDS011;673;48.098;14.422;2022-10-03T19:56:12;2.13;;;1.90;;
1358;SDS011;673;48.098;14.422;2022-10-03T19:58:43;6.80;;;3.23;;
1358;SDS011;673;48.098;14.422;2022-10-03T20:01:12;2.63;;;2.33;;